sensor_id;sensor_type;location;lat;lon;timestamp;pressure;altitude;pressure_sealevel;temperature
29701;BMP280;57917;51.380;-0.176;2023-06-19T00:01:51;100578.00;;;17.95
29701;BMP280;57917;51.380;-0.176;2023-06-19T00:07:37;100580.91;;;17.90
29701;BMP280;57917;51.380;-0.176;2023-06-19T00:13:24;100584.41;;;17.82
29701;BMP280;57917;51.380;-0.176;2023-06-19T00:19:11;100580.50;;;17.79
29701;BMP280;57917;51.380;-0.176;2023-06-19T00:24:59;100588.03;;;17.86
29701;BMP280;57917;51.380;-0.176;2023-06-19T00:30:46;100597.22;;;17.97
29701;BMP280;57917;51.380;-0.176;2023-06-19T00:36:33;100607.41;;;18.03
29701;BMP280;57917;51.380;-0.176;2023-06-19T00:42:30;100601.94;;;18.00
29701;BMP280;57917;51.380;-0.176;2023-06-19T00:48:23;100606.81;;;18.18
29701;BMP280;57917;51.380;-0.176;2023-06-19T00:54:16;100600.63;;;18.06
29701;BMP280;57917;51.380;-0.176;2023-06-19T01:00:04;100607.78;;;18.14
29701;BMP280;57917;51.380;-0.176;2023-06-19T01:05:53;100591.53;;;18.19
29701;BMP280;57917;51.380;-0.176;2023-06-19T01:12:01;100596.75;;;17.95
29701;BMP280;57917;51.380;-0.176;2023-06-19T01:17:50;100600.88;;;17.92
29701;BMP280;57917;51.380;-0.176;2023-06-19T01:23:45;100599.72;;;18.02
29701;BMP280;57917;51.380;-0.176;2023-06-19T01:29:32;100593.56;;;18.01
29701;BMP280;57917;51.380;-0.176;2023-06-19T01:35:23;100593.19;;;17.91
29701;BMP280;57917;51.380;-0.176;2023-06-19T01:41:11;100602.47;;;17.73
29701;BMP280;57917;51.380;-0.176;2023-06-19T01:47:08;100597.91;;;17.73
29701;BMP280;57917;51.380;-0.176;2023-06-19T01:52:55;100605.75;;;17.70
29701;BMP280;57917;51.380;-0.176;2023-06-19T01:58:42;100614.53;;;17.58
29701;BMP280;57917;51.380;-0.176;2023-06-19T02:04:29;100612.81;;;17.54
29701;BMP280;57917;51.380;-0.176;2023-06-19T02:10:16;100602.56;;;17.56
29701;BMP280;57917;51.380;-0.176;2023-06-19T02:16:06;100613.00;;;17.49
29701;BMP280;57917;51.380;-0.176;2023-06-19T02:21:53;100619.84;;;17.38
29701;BMP280;57917;51.380;-0.176;2023-06-19T02:27:40;100614.28;;;17.43
29701;BMP280;57917;51.380;-0.176;2023-06-19T02:33:27;100619.81;;;17.46
29701;BMP280;57917;51.380;-0.176;2023-06-19T02:39:15;100630.34;;;17.43
29701;BMP280;57917;51.380;-0.176;2023-06-19T02:45:03;100623.06;;;17.52
29701;BMP280;57917;51.380;-0.176;2023-06-19T02:50:54;100625.06;;;17.34
29701;BMP280;57917;51.380;-0.176;2023-06-19T02:56:43;100643.31;;;17.32
29701;BMP280;57917;51.380;-0.176;2023-06-19T03:02:30;100651.22;;;17.29
29701;BMP280;57917;51.380;-0.176;2023-06-19T03:08:19;100668.88;;;17.21
29701;BMP280;57917;51.380;-0.176;2023-06-19T03:14:09;100677.41;;;17.15
29701;BMP280;57917;51.380;-0.176;2023-06-19T03:20:00;100687.44;;;17.18
29701;BMP280;57917;51.380;-0.176;2023-06-19T03:26:12;100692.78;;;17.18
29701;BMP280;57917;51.380;-0.176;2023-06-19T03:32:29;100702.59;;;17.05
29701;BMP280;57917;51.380;-0.176;2023-06-19T03:38:24;100689.19;;;17.14
29701;BMP280;57917;51.380;-0.176;2023-06-19T03:44:24;100702.38;;;17.27
29701;BMP280;57917;51.380;-0.176;2023-06-19T03:50:18;100695.16;;;17.19
29701;BMP280;57917;51.380;-0.176;2023-06-19T03:56:18;100713.09;;;17.19
29701;BMP280;57917;51.380;-0.176;2023-06-19T04:02:11;100724.44;;;17.16
29701;BMP280;57917;51.380;-0.176;2023-06-19T04:08:15;100733.72;;;17.10
29701;BMP280;57917;51.380;-0.176;2023-06-19T04:14:10;100746.03;;;17.11
29701;BMP280;57917;51.380;-0.176;2023-06-19T04:20:00;100746.63;;;17.08
29701;BMP280;57917;51.380;-0.176;2023-06-19T04:26:01;100751.06;;;17.04
29701;BMP280;57917;51.380;-0.176;2023-06-19T04:31:51;100762.69;;;16.99
29701;BMP280;57917;51.380;-0.176;2023-06-19T04:37:45;100765.03;;;17.64
29701;BMP280;57917;51.380;-0.176;2023-06-19T04:43:55;100747.88;;;18.55
29701;BMP280;57917;51.380;-0.176;2023-06-19T04:49:45;100752.81;;;18.98
29701;BMP280;57917;51.380;-0.176;2023-06-19T04:55:42;100735.44;;;19.52
29701;BMP280;57917;51.380;-0.176;2023-06-19T05:01:48;100727.72;;;20.42
29701;BMP280;57917;51.380;-0.176;2023-06-19T05:08:14;100722.63;;;21.61
29701;BMP280;57917;51.380;-0.176;2023-06-19T05:14:14;100718.31;;;22.33
29701;BMP280;57917;51.380;-0.176;2023-06-19T05:20:14;100740.13;;;22.66
29701;BMP280;57917;51.380;-0.176;2023-06-19T05:26:24;100742.81;;;22.66
29701;BMP280;57917;51.380;-0.176;2023-06-19T05:32:18;100757.41;;;21.50
29701;BMP280;57917;51.380;-0.176;2023-06-19T05:38:05;100755.22;;;22.09
29701;BMP280;57917;51.380;-0.176;2023-06-19T05:43:53;100748.75;;;22.75
29701;BMP280;57917;51.380;-0.176;2023-06-19T05:49:40;100734.44;;;23.19
29701;BMP280;57917;51.380;-0.176;2023-06-19T05:55:29;100740.09;;;23.37
29701;BMP280;57917;51.380;-0.176;2023-06-19T06:01:20;100744.34;;;23.12
29701;BMP280;57917;51.380;-0.176;2023-06-19T06:07:11;100743.59;;;22.66
29701;BMP280;57917;51.380;-0.176;2023-06-19T06:12:58;100740.66;;;22.14
29701;BMP280;57917;51.380;-0.176;2023-06-19T06:18:45;100751.75;;;21.90
29701;BMP280;57917;51.380;-0.176;2023-06-19T06:24:32;100757.69;;;21.80
29701;BMP280;57917;51.380;-0.176;2023-06-19T06:30:19;100750.31;;;21.42
29701;BMP280;57917;51.380;-0.176;2023-06-19T06:36:14;100748.66;;;21.22
29701;BMP280;57917;51.380;-0.176;2023-06-19T06:42:18;100769.66;;;20.86
29701;BMP280;57917;51.380;-0.176;2023-06-19T06:48:09;100769.16;;;20.68
29701;BMP280;57917;51.380;-0.176;2023-06-19T06:53:57;100777.59;;;20.67
29701;BMP280;57917;51.380;-0.176;2023-06-19T06:59:43;100793.94;;;20.74
29701;BMP280;57917;51.380;-0.176;2023-06-19T07:05:30;100797.63;;;20.97
29701;BMP280;57917;51.380;-0.176;2023-06-19T07:11:17;100802.44;;;21.03
29701;BMP280;57917;51.380;-0.176;2023-06-19T07:17:05;100791.66;;;21.03
29701;BMP280;57917;51.380;-0.176;2023-06-19T07:23:19;100798.88;;;20.99
29701;BMP280;57917;51.380;-0.176;2023-06-19T07:29:27;100791.56;;;20.84
29701;BMP280;57917;51.380;-0.176;2023-06-19T07:35:14;100787.47;;;21.21
29701;BMP280;57917;51.380;-0.176;2023-06-19T07:41:01;100794.97;;;21.12
29701;BMP280;57917;51.380;-0.176;2023-06-19T07:46:49;100802.16;;;21.39
29701;BMP280;57917;51.380;-0.176;2023-06-19T07:52:38;100805.88;;;22.00
29701;BMP280;57917;51.380;-0.176;2023-06-19T07:58:28;100792.41;;;22.39
29701;BMP280;57917;51.380;-0.176;2023-06-19T08:04:19;100791.06;;;22.48
29701;BMP280;57917;51.380;-0.176;2023-06-19T08:10:31;100802.91;;;22.63
29701;BMP280;57917;51.380;-0.176;2023-06-19T08:23:58;100793.84;;;24.01
29701;BMP280;57917;51.380;-0.176;2023-06-19T08:37:25;100809.03;;;24.09
29701;BMP280;57917;51.380;-0.176;2023-06-19T08:43:14;100804.22;;;23.92
29701;BMP280;57917;51.380;-0.176;2023-06-19T08:49:25;100796.75;;;24.15
29701;BMP280;57917;51.380;-0.176;2023-06-19T08:55:23;100807.34;;;24.27
29701;BMP280;57917;51.380;-0.176;2023-06-19T09:01:21;100813.72;;;23.82
29701;BMP280;57917;51.380;-0.176;2023-06-19T09:07:16;100810.88;;;23.46
29701;BMP280;57917;51.380;-0.176;2023-06-19T09:13:12;100817.25;;;23.57
29701;BMP280;57917;51.380;-0.176;2023-06-19T09:19:02;100811.34;;;23.77
29701;BMP280;57917;51.380;-0.176;2023-06-19T09:24:50;100803.75;;;24.92
29701;BMP280;57917;51.380;-0.176;2023-06-19T09:37:09;100801.06;;;24.96
29701;BMP280;57917;51.380;-0.176;2023-06-19T09:49:48;100798.47;;;25.74
29701;BMP280;57917;51.380;-0.176;2023-06-19T09:55:41;100798.25;;;26.25
29701;BMP280;57917;51.380;-0.176;2023-06-19T10:01:43;100804.47;;;26.29
29701;BMP280;57917;51.380;-0.176;2023-06-19T10:08:13;100812.53;;;25.97
29701;BMP280;57917;51.380;-0.176;2023-06-19T10:14:24;100824.25;;;26.33
29701;BMP280;57917;51.380;-0.176;2023-06-19T10:28:33;100823.56;;;26.71
29701;BMP280;57917;51.380;-0.176;2023-06-19T10:34:58;100812.31;;;26.72
29701;BMP280;57917;51.380;-0.176;2023-06-19T10:41:18;100805.31;;;26.99
29701;BMP280;57917;51.380;-0.176;2023-06-19T10:47:57;100796.00;;;26.62
29701;BMP280;57917;51.380;-0.176;2023-06-19T11:01:57;100794.03;;;27.08
29701;BMP280;57917;51.380;-0.176;2023-06-19T11:07:51;100810.59;;;27.62
29701;BMP280;57917;51.380;-0.176;2023-06-19T11:13:38;100824.69;;;27.12
29701;BMP280;57917;51.380;-0.176;2023-06-19T11:19:30;100815.41;;;27.06
29701;BMP280;57917;51.380;-0.176;2023-06-19T11:25:40;100811.50;;;26.79
29701;BMP280;57917;51.380;-0.176;2023-06-19T11:31:35;100799.88;;;26.47
29701;BMP280;57917;51.380;-0.176;2023-06-19T11:37:22;100802.97;;;26.52
29701;BMP280;57917;51.380;-0.176;2023-06-19T11:43:34;100811.91;;;26.74
29701;BMP280;57917;51.380;-0.176;2023-06-19T11:49:25;100808.78;;;26.58
29701;BMP280;57917;51.380;-0.176;2023-06-19T11:55:13;100798.31;;;26.49
29701;BMP280;57917;51.380;-0.176;2023-06-19T12:01:02;100796.78;;;26.66
29701;BMP280;57917;51.380;-0.176;2023-06-19T12:06:50;100788.59;;;26.31
29701;BMP280;57917;51.380;-0.176;2023-06-19T12:12:36;100790.09;;;26.11
29701;BMP280;57917;51.380;-0.176;2023-06-19T12:18:28;100790.50;;;26.20
29701;BMP280;57917;51.380;-0.176;2023-06-19T12:24:15;100801.75;;;26.29
29701;BMP280;57917;51.380;-0.176;2023-06-19T12:30:02;100789.00;;;26.68
29701;BMP280;57917;51.380;-0.176;2023-06-19T12:35:50;100785.88;;;26.38
29701;BMP280;57917;51.380;-0.176;2023-06-19T12:41:37;100777.34;;;26.64
29701;BMP280;57917;51.380;-0.176;2023-06-19T12:47:26;100772.72;;;26.75
29701;BMP280;57917;51.380;-0.176;2023-06-19T12:53:13;100773.47;;;26.58
29701;BMP280;57917;51.380;-0.176;2023-06-19T12:59:01;100764.94;;;26.28
29701;BMP280;57917;51.380;-0.176;2023-06-19T13:04:48;100779.28;;;26.18
29701;BMP280;57917;51.380;-0.176;2023-06-19T13:10:35;100759.44;;;26.03
29701;BMP280;57917;51.380;-0.176;2023-06-19T13:16:25;100774.94;;;25.89
29701;BMP280;57917;51.380;-0.176;2023-06-19T13:22:31;100768.00;;;26.05
29701;BMP280;57917;51.380;-0.176;2023-06-19T13:28:18;100768.00;;;26.19
29701;BMP280;57917;51.380;-0.176;2023-06-19T13:34:05;100763.34;;;26.09
29701;BMP280;57917;51.380;-0.176;2023-06-19T13:39:54;100766.59;;;25.54
29701;BMP280;57917;51.380;-0.176;2023-06-19T13:45:41;100774.84;;;25.75
29701;BMP280;57917;51.380;-0.176;2023-06-19T13:51:31;100781.13;;;25.96
29701;BMP280;57917;51.380;-0.176;2023-06-19T13:57:29;100768.66;;;25.78
29701;BMP280;57917;51.380;-0.176;2023-06-19T14:03:26;100758.66;;;25.89
29701;BMP280;57917;51.380;-0.176;2023-06-19T14:09:13;100751.25;;;25.86
29701;BMP280;57917;51.380;-0.176;2023-06-19T14:15:01;100760.91;;;25.76
29701;BMP280;57917;51.380;-0.176;2023-06-19T14:20:50;100740.56;;;25.35
29701;BMP280;57917;51.380;-0.176;2023-06-19T14:26:39;100747.25;;;25.55
29701;BMP280;57917;51.380;-0.176;2023-06-19T14:32:32;100734.38;;;25.35
29701;BMP280;57917;51.380;-0.176;2023-06-19T14:38:21;100746.06;;;25.49
29701;BMP280;57917;51.380;-0.176;2023-06-19T14:44:15;100737.97;;;25.53
29701;BMP280;57917;51.380;-0.176;2023-06-19T14:50:07;100729.66;;;25.25
29701;BMP280;57917;51.380;-0.176;2023-06-19T14:55:54;100713.38;;;25.18
29701;BMP280;57917;51.380;-0.176;2023-06-19T15:01:42;100711.09;;;25.23
29701;BMP280;57917;51.380;-0.176;2023-06-19T15:07:33;100714.81;;;25.05
29701;BMP280;57917;51.380;-0.176;2023-06-19T15:13:42;100716.75;;;25.04
29701;BMP280;57917;51.380;-0.176;2023-06-19T15:19:30;100712.56;;;25.14
29701;BMP280;57917;51.380;-0.176;2023-06-19T15:25:17;100704.00;;;25.05
29701;BMP280;57917;51.380;-0.176;2023-06-19T15:31:09;100703.97;;;24.98
29701;BMP280;57917;51.380;-0.176;2023-06-19T15:37:00;100718.22;;;25.56
29701;BMP280;57917;51.380;-0.176;2023-06-19T15:42:49;100715.13;;;25.61
29701;BMP280;57917;51.380;-0.176;2023-06-19T15:48:44;100715.72;;;25.23
29701;BMP280;57917;51.380;-0.176;2023-06-19T15:54:41;100706.31;;;25.06
29701;BMP280;57917;51.380;-0.176;2023-06-19T16:00:31;100695.16;;;25.15
29701;BMP280;57917;51.380;-0.176;2023-06-19T16:06:18;100686.94;;;24.97
29701;BMP280;57917;51.380;-0.176;2023-06-19T16:12:14;100692.53;;;24.71
29701;BMP280;57917;51.380;-0.176;2023-06-19T16:18:03;100694.50;;;24.74
29701;BMP280;57917;51.380;-0.176;2023-06-19T16:24:00;100680.19;;;24.74
29701;BMP280;57917;51.380;-0.176;2023-06-19T16:30:02;100677.41;;;24.67
29701;BMP280;57917;51.380;-0.176;2023-06-19T16:35:52;100672.13;;;24.81
29701;BMP280;57917;51.380;-0.176;2023-06-19T16:41:41;100669.72;;;24.69
29701;BMP280;57917;51.380;-0.176;2023-06-19T16:47:28;100674.03;;;24.80
29701;BMP280;57917;51.380;-0.176;2023-06-19T16:53:20;100669.03;;;24.82
29701;BMP280;57917;51.380;-0.176;2023-06-19T16:59:10;100687.50;;;24.70
29701;BMP280;57917;51.380;-0.176;2023-06-19T17:04:58;100691.81;;;24.78
29701;BMP280;57917;51.380;-0.176;2023-06-19T17:10:45;100682.81;;;24.67
29701;BMP280;57917;51.380;-0.176;2023-06-19T17:16:32;100687.00;;;24.57
29701;BMP280;57917;51.380;-0.176;2023-06-19T17:22:23;100690.13;;;24.56
29701;BMP280;57917;51.380;-0.176;2023-06-19T17:28:10;100691.63;;;24.53
29701;BMP280;57917;51.380;-0.176;2023-06-19T17:34:00;100688.88;;;24.50
29701;BMP280;57917;51.380;-0.176;2023-06-19T17:39:48;100683.38;;;24.39
29701;BMP280;57917;51.380;-0.176;2023-06-19T17:45:35;100695.66;;;24.30
29701;BMP280;57917;51.380;-0.176;2023-06-19T17:51:21;100691.59;;;24.10
29701;BMP280;57917;51.380;-0.176;2023-06-19T17:57:10;100694.00;;;24.18
29701;BMP280;57917;51.380;-0.176;2023-06-19T18:02:59;100709.97;;;23.94
29701;BMP280;57917;51.380;-0.176;2023-06-19T18:08:49;100710.31;;;23.92
29701;BMP280;57917;51.380;-0.176;2023-06-19T18:14:37;100699.09;;;23.90
29701;BMP280;57917;51.380;-0.176;2023-06-19T18:20:24;100702.09;;;23.82
29701;BMP280;57917;51.380;-0.176;2023-06-19T18:26:13;100717.69;;;23.92
29701;BMP280;57917;51.380;-0.176;2023-06-19T18:32:08;100719.38;;;23.74
29701;BMP280;57917;51.380;-0.176;2023-06-19T18:37:55;100717.88;;;23.47
29701;BMP280;57917;51.380;-0.176;2023-06-19T18:43:42;100720.69;;;23.54
29701;BMP280;57917;51.380;-0.176;2023-06-19T18:49:29;100721.78;;;23.53
29701;BMP280;57917;51.380;-0.176;2023-06-19T18:55:19;100709.19;;;23.34
29701;BMP280;57917;51.380;-0.176;2023-06-19T19:01:06;100730.50;;;23.13
29701;BMP280;57917;51.380;-0.176;2023-06-19T19:06:53;100733.25;;;23.17
29701;BMP280;57917;51.380;-0.176;2023-06-19T19:12:40;100739.72;;;22.86
29701;BMP280;57917;51.380;-0.176;2023-06-19T19:18:27;100741.72;;;22.93
29701;BMP280;57917;51.380;-0.176;2023-06-19T19:24:14;100754.88;;;22.72
29701;BMP280;57917;51.380;-0.176;2023-06-19T19:30:03;100756.00;;;22.71
29701;BMP280;57917;51.380;-0.176;2023-06-19T19:35:54;100749.94;;;22.74
29701;BMP280;57917;51.380;-0.176;2023-06-19T19:41:45;100749.72;;;22.63
29701;BMP280;57917;51.380;-0.176;2023-06-19T19:47:34;100761.16;;;22.57
29701;BMP280;57917;51.380;-0.176;2023-06-19T19:53:22;100766.00;;;22.48
29701;BMP280;57917;51.380;-0.176;2023-06-19T19:59:10;100770.38;;;22.56
29701;BMP280;57917;51.380;-0.176;2023-06-19T20:04:59;100779.31;;;22.41
29701;BMP280;57917;51.380;-0.176;2023-06-19T20:10:48;100778.91;;;22.39
29701;BMP280;57917;51.380;-0.176;2023-06-19T20:16:35;100779.66;;;22.17
29701;BMP280;57917;51.380;-0.176;2023-06-19T20:22:24;100779.50;;;22.09
29701;BMP280;57917;51.380;-0.176;2023-06-19T20:28:11;100780.63;;;22.08
29701;BMP280;57917;51.380;-0.176;2023-06-19T20:33:58;100786.59;;;21.98
29701;BMP280;57917;51.380;-0.176;2023-06-19T20:39:45;100775.94;;;21.86
29701;BMP280;57917;51.380;-0.176;2023-06-19T20:45:33;100785.41;;;21.80
29701;BMP280;57917;51.380;-0.176;2023-06-19T20:51:32;100794.28;;;21.81
29701;BMP280;57917;51.380;-0.176;2023-06-19T20:57:19;100791.75;;;21.72
29701;BMP280;57917;51.380;-0.176;2023-06-19T21:03:06;100787.09;;;21.69
29701;BMP280;57917;51.380;-0.176;2023-06-19T21:08:58;100791.63;;;21.65
29701;BMP280;57917;51.380;-0.176;2023-06-19T21:14:48;100799.03;;;21.53
29701;BMP280;57917;51.380;-0.176;2023-06-19T21:20:40;100801.63;;;21.49
29701;BMP280;57917;51.380;-0.176;2023-06-19T21:26:27;100791.31;;;21.36
29701;BMP280;57917;51.380;-0.176;2023-06-19T21:32:15;100786.00;;;21.39
29701;BMP280;57917;51.380;-0.176;2023-06-19T21:38:02;100791.56;;;21.31
29701;BMP280;57917;51.380;-0.176;2023-06-19T21:43:51;100777.50;;;21.22
29701;BMP280;57917;51.380;-0.176;2023-06-19T21:49:38;100781.75;;;21.07
29701;BMP280;57917;51.380;-0.176;2023-06-19T21:55:29;100769.50;;;20.94
29701;BMP280;57917;51.380;-0.176;2023-06-19T22:01:16;100771.16;;;20.99
29701;BMP280;57917;51.380;-0.176;2023-06-19T22:07:02;100755.09;;;21.02
29701;BMP280;57917;51.380;-0.176;2023-06-19T22:13:02;100764.44;;;20.93
29701;BMP280;57917;51.380;-0.176;2023-06-19T22:18:49;100761.59;;;21.01
29701;BMP280;57917;51.380;-0.176;2023-06-19T22:24:36;100753.25;;;21.06
29701;BMP280;57917;51.380;-0.176;2023-06-19T22:30:33;100746.31;;;21.05
29701;BMP280;57917;51.380;-0.176;2023-06-19T22:36:21;100739.19;;;20.97
29701;BMP280;57917;51.380;-0.176;2023-06-19T22:42:11;100748.41;;;20.96
29701;BMP280;57917;51.380;-0.176;2023-06-19T22:48:19;100745.50;;;20.89
29701;BMP280;57917;51.380;-0.176;2023-06-19T22:54:27;100753.25;;;20.75
29701;BMP280;57917;51.380;-0.176;2023-06-19T23:00:15;100753.31;;;20.63
29701;BMP280;57917;51.380;-0.176;2023-06-19T23:06:10;100752.66;;;20.54
29701;BMP280;57917;51.380;-0.176;2023-06-19T23:11:56;100743.91;;;20.57
29701;BMP280;57917;51.380;-0.176;2023-06-19T23:17:45;100735.66;;;20.50
29701;BMP280;57917;51.380;-0.176;2023-06-19T23:23:43;100731.44;;;20.37
29701;BMP280;57917;51.380;-0.176;2023-06-19T23:29:37;100746.53;;;20.26
29701;BMP280;57917;51.380;-0.176;2023-06-19T23:35:30;100734.53;;;19.84
29701;BMP280;57917;51.380;-0.176;2023-06-19T23:41:26;100729.28;;;20.15
29701;BMP280;57917;51.380;-0.176;2023-06-19T23:47:14;100735.63;;;20.23
29701;BMP280;57917;51.380;-0.176;2023-06-19T23:53:04;100727.06;;;20.45
29701;BMP280;57917;51.380;-0.176;2023-06-19T23:58:55;100724.16;;;20.38
